createdAt,value
2022-08-04T00:02:04.212Z,59.94
2022-08-04T00:04:54.305Z,59.62
2022-08-04T00:07:44.349Z,58.70
2022-08-04T00:10:17.027Z,58.80
2022-08-04T00:12:48.806Z,58.63
2022-08-04T00:15:17.480Z,59.29
2022-08-04T00:18:05.950Z,59.86
2022-08-04T00:20:35.199Z,60.44
2022-08-04T00:23:06.305Z,60.02
2022-08-04T00:25:33.172Z,60.68
2022-08-04T00:28:02.775Z,60.11
2022-08-04T00:30:29.582Z,60.45
2022-08-04T00:32:57.678Z,61.10
2022-08-04T00:35:24.701Z,60.92
2022-08-04T00:37:52.327Z,60.71
2022-08-04T00:41:01.201Z,60.50
2022-08-04T00:43:32.013Z,60.84
2022-08-04T00:46:16.247Z,61.41
2022-08-04T00:49:00.612Z,60.68
2022-08-04T00:51:45.977Z,59.63
2022-08-04T00:54:33.947Z,61.48
2022-08-04T00:57:07.515Z,62.00
2022-08-04T01:00:06.042Z,60.99
2022-08-04T01:02:51.040Z,60.98
2022-08-04T01:05:40.236Z,60.86
2022-08-04T01:08:33.807Z,60.88
2022-08-04T01:11:31.052Z,60.39
2022-08-04T01:14:26.954Z,61.19
2022-08-04T01:17:03.346Z,60.75
2022-08-04T01:19:43.848Z,61.41
2022-08-04T01:22:38.316Z,61.59
2022-08-04T01:25:39.096Z,60.00
2022-08-04T01:28:30.217Z,60.70
2022-08-04T01:31:13.033Z,60.82
2022-08-04T01:34:03.493Z,61.94
2022-08-04T01:36:28.893Z,60.68
2022-08-04T01:38:55.747Z,61.52
2022-08-04T01:41:32.495Z,61.77
2022-08-04T01:44:02.949Z,61.40
2022-08-04T01:46:33.895Z,61.32
2022-08-04T01:49:02.827Z,61.40
2022-08-04T01:51:33.806Z,60.82
2022-08-04T01:54:00.433Z,60.60
2022-08-04T01:56:29.023Z,61.21
2022-08-04T01:58:58.217Z,60.84
2022-08-04T02:01:25.013Z,60.82
2022-08-04T02:04:18.125Z,61.25
2022-08-04T02:06:38.274Z,61.51
2022-08-04T02:09:22.063Z,62.19
2022-08-04T02:12:04.252Z,60.62
2022-08-04T02:14:45.287Z,61.39
2022-08-04T02:17:44.144Z,61.57
2022-08-04T02:20:25.963Z,62.40
2022-08-04T02:23:00.870Z,61.54
2022-08-04T02:25:29.877Z,62.34
2022-08-04T02:28:23.786Z,62.66
2022-08-04T02:30:57.867Z,62.87
2022-08-04T02:33:44.641Z,63.85
2022-08-04T02:36:19.266Z,62.97
2022-08-04T02:38:55.256Z,62.09
2022-08-04T02:41:23.881Z,64.04
2022-08-04T02:43:52.862Z,62.33
2022-08-04T02:46:21.791Z,62.68
2022-08-04T02:48:50.428Z,62.86
2022-08-04T02:51:22.228Z,64.10
2022-08-04T02:53:53.826Z,61.80
2022-08-04T02:56:22.300Z,61.82
2022-08-04T02:58:53.207Z,62.99
2022-08-04T03:01:22.148Z,62.69
2022-08-04T03:04:24.359Z,63.32
2022-08-04T03:07:18.821Z,63.11
2022-08-04T03:10:23.045Z,63.09
2022-08-04T03:13:02.708Z,63.99
2022-08-04T03:15:47.206Z,63.06
2022-08-04T03:18:29.015Z,63.07
2022-08-04T03:21:05.408Z,63.63
2022-08-04T03:23:57.665Z,63.69
2022-08-04T03:26:49.315Z,64.35
2022-08-04T03:29:57.554Z,64.34
2022-08-04T03:32:48.146Z,63.88
2022-08-04T03:35:53.580Z,63.54
2022-08-04T03:38:57.096Z,63.78
2022-08-04T03:41:51.930Z,63.92
2022-08-04T03:44:49.863Z,63.20
2022-08-04T03:47:22.341Z,63.15
2022-08-04T03:50:40.922Z,64.79
2022-08-04T03:53:26.344Z,64.55
2022-08-04T03:55:58.682Z,65.63
2022-08-04T03:58:43.863Z,65.54
2022-08-04T04:01:22.618Z,65.30
2022-08-04T04:03:58.259Z,65.28
2022-08-04T04:06:41.503Z,65.14
2022-08-04T04:09:56.899Z,65.35
2022-08-04T04:12:49.147Z,66.72
2022-08-04T04:15:55.700Z,65.38
2022-08-04T04:18:56.249Z,66.25
2022-08-04T04:21:39.581Z,67.01
2022-08-04T04:24:34.015Z,66.40
2022-08-04T04:27:48.670Z,66.13
2022-08-04T04:30:37.000Z,68.31
2022-08-04T04:33:21.787Z,67.85
2022-08-04T04:36:13.095Z,68.79
2022-08-04T04:39:01.612Z,67.88
2022-08-04T04:41:47.269Z,69.11
2022-08-04T04:44:19.503Z,69.55
2022-08-04T04:47:06.700Z,69.84
2022-08-04T04:49:48.383Z,69.90
2022-08-04T04:52:31.008Z,68.21
2022-08-04T04:55:18.263Z,69.41
2022-08-04T04:57:53.825Z,70.19
2022-08-04T05:00:25.277Z,68.81
2022-08-04T05:03:22.143Z,67.98
2022-08-04T05:06:08.163Z,66.89
2022-08-04T05:09:04.049Z,66.45
2022-08-04T05:11:45.532Z,67.29
2022-08-04T05:14:36.505Z,68.59
2022-08-04T05:17:28.161Z,67.12
2022-08-04T05:20:01.662Z,67.28
2022-08-04T05:22:53.116Z,66.07
2022-08-04T05:25:27.516Z,66.03
2022-08-04T05:28:00.159Z,65.28
2022-08-04T05:30:33.114Z,64.86
2022-08-04T05:33:03.744Z,65.08
2022-08-04T05:35:38.973Z,63.36
2022-08-04T05:38:27.561Z,64.21
2022-08-04T05:40:56.894Z,63.85
2022-08-04T05:43:24.342Z,62.28
2022-08-04T05:45:53.186Z,61.25
2022-08-04T05:48:20.547Z,55.55
2022-08-04T05:50:47.655Z,51.70
2022-08-04T05:53:16.030Z,50.35
2022-08-04T05:55:57.145Z,49.98
2022-08-04T05:58:28.759Z,50.16
2022-08-04T06:00:56.070Z,49.96
2022-08-04T06:03:24.098Z,48.50
2022-08-04T06:05:52.305Z,47.63
2022-08-04T06:08:19.021Z,48.26
2022-08-04T06:10:48.225Z,49.64
2022-08-04T06:13:49.325Z,47.91
2022-08-04T06:16:17.791Z,49.01
2022-08-04T06:20:00.625Z,48.66
2022-08-04T06:21:35.328Z,47.93
2022-08-04T06:24:05.103Z,46.32
2022-08-04T06:26:34.804Z,45.51
2022-08-04T06:29:02.557Z,44.85
2022-08-04T06:32:30.274Z,45.11
2022-08-04T06:34:18.847Z,46.10
2022-08-04T06:36:47.578Z,45.43
2022-08-04T06:39:14.636Z,45.31
2022-08-04T06:42:16.954Z,43.94
2022-08-04T06:44:31.086Z,44.24
2022-08-04T06:46:58.854Z,44.37
2022-08-04T06:49:26.902Z,43.24
2022-08-04T06:51:55.849Z,47.16
2022-08-04T06:54:22.492Z,42.99
2022-08-04T06:56:51.983Z,43.34
2022-08-04T06:59:20.421Z,41.81
2022-08-04T07:01:49.028Z,41.96
2022-08-04T07:04:15.954Z,41.65
2022-08-04T07:06:42.810Z,41.54
2022-08-04T07:09:10.301Z,41.33
2022-08-04T07:11:39.445Z,42.23
2022-08-04T07:14:12.513Z,42.12
2022-08-04T07:16:42.040Z,41.58
2022-08-04T07:19:10.566Z,40.00
2022-08-04T07:21:39.606Z,41.61
2022-08-04T07:24:06.623Z,39.11
2022-08-04T07:26:33.248Z,39.49
2022-08-04T07:29:00.325Z,38.09
2022-08-04T07:31:33.528Z,39.21
2022-08-04T07:34:11.524Z,39.57
2022-08-04T07:36:52.726Z,39.55
2022-08-04T07:39:27.743Z,40.64
2022-08-04T07:41:56.923Z,41.08
2022-08-04T07:44:23.793Z,39.61
2022-08-04T07:46:50.581Z,39.51
2022-08-04T07:49:55.964Z,41.13
2022-08-04T07:52:06.886Z,39.40
2022-08-04T07:54:35.270Z,37.02
2022-08-04T07:57:03.091Z,39.85
2022-08-04T07:59:29.767Z,37.07
2022-08-04T08:02:00.443Z,36.82
2022-08-04T08:04:27.494Z,38.67
2022-08-04T08:06:54.496Z,37.52
2022-08-04T08:09:21.175Z,37.74
2022-08-04T08:12:38.841Z,38.36
2022-08-04T08:14:37.062Z,38.31
2022-08-04T08:17:04.876Z,37.94
2022-08-04T08:19:33.172Z,37.75
2022-08-04T08:22:01.215Z,34.99
2022-08-04T08:24:30.137Z,34.23
2022-08-04T08:26:57.809Z,36.73
2022-08-04T08:29:26.112Z,35.89
2022-08-04T08:31:57.449Z,36.42
2022-08-04T08:34:29.341Z,36.79
2022-08-04T08:37:09.968Z,36.39
2022-08-04T08:40:10.792Z,36.66
2022-08-04T08:44:05.368Z,35.35
2022-08-04T08:46:48.118Z,32.49
2022-08-04T08:50:02.791Z,34.64
2022-08-04T08:52:57.568Z,32.15
2022-08-04T08:55:26.378Z,33.29
2022-08-04T08:58:11.769Z,32.82
2022-08-04T09:00:59.958Z,35.35
2022-08-04T09:03:29.278Z,31.05
2022-08-04T09:06:20.547Z,32.22
2022-08-04T09:09:15.032Z,31.98
2022-08-04T09:12:04.854Z,33.58
2022-08-04T09:15:04.578Z,31.77
2022-08-04T09:17:49.897Z,34.67
2022-08-04T09:20:40.154Z,34.00
2022-08-04T09:23:15.742Z,33.01
2022-08-04T09:26:01.897Z,32.22
2022-08-04T09:28:53.748Z,33.25
2022-08-04T09:31:28.387Z,34.09
2022-08-04T09:34:43.940Z,33.78
2022-08-04T09:37:45.596Z,33.61
2022-08-04T09:40:31.762Z,33.29
2022-08-04T09:43:29.402Z,34.36
2022-08-04T09:46:21.732Z,34.41
2022-08-04T09:48:53.460Z,29.85
2022-08-04T09:51:57.222Z,33.07
2022-08-04T09:55:03.345Z,31.34
2022-08-04T09:57:42.139Z,32.90
2022-08-04T10:00:12.475Z,32.02
2022-08-04T10:02:58.552Z,30.23
2022-08-04T10:05:52.564Z,30.92
2022-08-04T10:08:57.926Z,30.37
2022-08-04T10:12:03.821Z,31.05
2022-08-04T10:14:57.888Z,31.56
2022-08-04T10:17:24.586Z,31.59
2022-08-04T10:20:44.822Z,30.30
2022-08-04T10:23:31.594Z,31.04
2022-08-04T10:26:24.229Z,30.78
2022-08-04T10:29:05.909Z,29.18
2022-08-04T10:31:43.195Z,28.88
2022-08-04T10:34:21.309Z,30.55
2022-08-04T10:37:02.832Z,29.99
2022-08-04T10:39:54.748Z,30.20
2022-08-04T10:42:27.720Z,29.82
2022-08-04T10:45:05.358Z,30.53
2022-08-04T10:47:44.484Z,31.91
2022-08-04T10:50:23.877Z,31.29
2022-08-04T10:53:01.304Z,31.01
2022-08-04T10:56:06.223Z,30.39
2022-08-04T10:58:47.522Z,29.88
2022-08-04T11:02:00.688Z,30.28
2022-08-04T11:04:35.900Z,30.64
2022-08-04T11:07:03.028Z,31.73
2022-08-04T11:09:32.125Z,29.78
2022-08-04T11:12:16.908Z,30.22
2022-08-04T11:15:03.604Z,31.21
2022-08-04T11:17:43.915Z,29.66
2022-08-04T11:20:38.402Z,30.17
2022-08-04T11:23:14.247Z,29.97
2022-08-04T11:26:00.985Z,31.32
2022-08-04T11:29:03.109Z,28.55
2022-08-04T11:31:36.466Z,29.81
2022-08-04T11:34:09.290Z,27.71
2022-08-04T11:37:03.438Z,28.04
2022-08-04T11:39:38.475Z,29.04
2022-08-04T11:42:08.211Z,29.39
2022-08-04T11:44:43.398Z,31.30
2022-08-04T11:47:32.534Z,28.23
2022-08-04T11:50:06.985Z,27.71
2022-08-04T11:52:35.553Z,27.63
2022-08-04T11:55:07.323Z,27.67
2022-08-04T11:57:35.850Z,27.35
2022-08-04T12:00:10.729Z,29.56
2022-08-04T12:03:15.260Z,27.40
2022-08-04T12:05:48.460Z,27.88
2022-08-04T12:08:26.675Z,27.96
2022-08-04T12:11:08.683Z,28.19
2022-08-04T12:13:46.475Z,29.41
2022-08-04T12:16:38.858Z,27.03
2022-08-04T12:19:17.343Z,28.18
2022-08-04T12:21:55.710Z,26.33
2022-08-04T12:24:45.119Z,26.48
2022-08-04T12:27:30.335Z,25.71
2022-08-04T12:31:00.600Z,27.29
2022-08-04T12:33:24.266Z,25.95
2022-08-04T12:36:32.143Z,28.09
2022-08-04T12:39:17.573Z,27.51
2022-08-04T12:42:03.713Z,26.14
2022-08-04T12:44:37.621Z,28.67
2022-08-04T12:47:28.458Z,27.17
2022-08-04T12:50:02.418Z,25.62
2022-08-04T12:53:01.028Z,27.50
2022-08-04T12:55:30.784Z,28.64
2022-08-04T12:57:58.426Z,25.23
2022-08-04T13:00:43.818Z,25.21
2022-08-04T13:03:14.595Z,25.11
2022-08-04T13:05:43.144Z,26.27
2022-08-04T13:08:12.065Z,25.58
2022-08-04T13:10:45.701Z,25.76
2022-08-04T13:13:16.538Z,27.02
2022-08-04T13:15:46.678Z,27.15
2022-08-04T13:18:15.546Z,25.85
2022-08-04T13:20:44.044Z,26.11
2022-08-04T13:23:21.436Z,26.27
2022-08-04T13:26:42.584Z,24.75
2022-08-04T13:28:42.879Z,25.66
2022-08-04T13:31:16.955Z,26.09
2022-08-04T13:33:48.831Z,26.10
2022-08-04T13:36:17.808Z,25.66
2022-08-04T13:38:57.814Z,25.34
2022-08-04T13:41:30.881Z,25.29
2022-08-04T13:44:17.684Z,25.15
2022-08-04T13:46:51.303Z,24.63
2022-08-04T13:49:42.718Z,24.87
2022-08-04T13:52:10.416Z,24.91
2022-08-04T13:54:42.797Z,24.94
2022-08-04T13:57:17.737Z,23.69
2022-08-04T14:00:04.430Z,24.66
2022-08-04T14:02:40.233Z,24.10
2022-08-04T14:05:18.046Z,24.67
2022-08-04T14:07:49.136Z,24.28
2022-08-04T14:10:16.106Z,23.85
2022-08-04T14:12:47.281Z,26.24
2022-08-04T14:16:01.306Z,24.49
2022-08-04T14:18:29.662Z,23.57
2022-08-04T14:21:06.345Z,24.91
2022-08-04T14:23:54.310Z,24.37
2022-08-04T14:26:33.900Z,23.03
2022-08-04T14:29:27.026Z,23.38
2022-08-04T14:32:06.047Z,23.16
2022-08-04T14:34:42.117Z,23.92
2022-08-04T14:37:18.601Z,23.57
2022-08-04T14:40:18.065Z,22.57
2022-08-04T14:42:54.921Z,23.17
2022-08-04T14:45:54.436Z,23.67
2022-08-04T14:48:22.848Z,23.72
2022-08-04T14:50:51.006Z,22.63
2022-08-04T14:53:23.893Z,22.52
2022-08-04T14:55:54.431Z,22.48
2022-08-04T14:58:32.980Z,23.31
2022-08-04T15:01:10.377Z,23.11
2022-08-04T15:03:49.931Z,22.24
2022-08-04T15:06:22.549Z,22.48
2022-08-04T15:08:51.048Z,22.61
2022-08-04T15:11:23.023Z,24.00
2022-08-04T15:13:51.617Z,22.51
2022-08-04T15:16:19.674Z,23.60
2022-08-04T15:18:49.150Z,23.39
2022-08-04T15:21:17.547Z,24.95
2022-08-04T15:23:44.559Z,23.27
2022-08-04T15:26:28.556Z,23.35
2022-08-04T15:29:02.482Z,23.84
2022-08-04T15:32:08.619Z,24.46
2022-08-04T15:34:17.448Z,24.29
2022-08-04T15:36:56.489Z,24.89
2022-08-04T15:39:24.113Z,23.71
2022-08-04T15:42:21.888Z,22.23
2022-08-04T15:44:51.311Z,23.09
2022-08-04T15:47:18.712Z,23.13
2022-08-04T15:49:45.822Z,24.08
2022-08-04T15:52:14.836Z,22.87
2022-08-04T15:54:52.666Z,21.90
2022-08-04T15:57:58.372Z,21.81
2022-08-04T16:00:25.047Z,22.18
2022-08-04T16:02:51.740Z,23.66
2022-08-04T16:05:21.120Z,22.42
2022-08-04T16:07:55.772Z,21.28
2022-08-04T16:10:31.424Z,21.80
2022-08-04T16:13:06.251Z,23.66
2022-08-04T16:15:49.146Z,22.10
2022-08-04T16:18:37.955Z,23.17
2022-08-04T16:21:18.316Z,23.01
2022-08-04T16:23:57.949Z,22.66
2022-08-04T16:26:38.233Z,22.67
2022-08-04T16:29:31.179Z,21.80
2022-08-04T16:32:06.723Z,22.82
2022-08-04T16:34:49.510Z,22.94
2022-08-04T16:37:28.778Z,21.94
2022-08-04T16:40:23.451Z,20.79
2022-08-04T16:42:50.372Z,19.93
2022-08-04T16:45:18.345Z,21.77
2022-08-04T16:47:47.855Z,20.82
2022-08-04T16:50:19.819Z,22.85
2022-08-04T16:52:55.536Z,20.80
2022-08-04T16:55:24.897Z,23.09
2022-08-04T16:57:57.808Z,22.18
2022-08-04T17:00:33.103Z,21.70
2022-08-04T17:03:08.078Z,21.71
2022-08-04T17:05:39.909Z,21.93
2022-08-04T17:10:55.315Z,23.34
2022-08-04T17:14:03.552Z,25.88
2022-08-04T17:16:17.894Z,25.88
2022-08-04T17:18:48.395Z,24.23
2022-08-04T17:21:28.144Z,25.79
2022-08-04T17:24:14.437Z,25.94
2022-08-04T17:26:53.650Z,24.94
2022-08-04T17:29:42.253Z,25.07
2022-08-04T17:32:17.636Z,27.21
2022-08-04T17:34:51.873Z,27.15
2022-08-04T17:37:37.956Z,28.64
2022-08-04T17:40:10.061Z,29.16
2022-08-04T17:42:37.329Z,29.37
2022-08-04T17:45:41.433Z,29.79
2022-08-04T17:47:55.803Z,29.30
2022-08-04T17:50:27.710Z,30.46
2022-08-04T17:53:12.030Z,30.00
2022-08-04T17:55:44.319Z,31.36
2022-08-04T17:58:22.264Z,31.18
2022-08-04T18:01:22.714Z,30.18
2022-08-04T18:03:52.723Z,30.34
2022-08-04T18:06:22.366Z,31.85
2022-08-04T18:08:57.558Z,30.46
2022-08-04T18:11:28.700Z,30.71
2022-08-04T18:13:57.131Z,30.79
2022-08-04T18:16:24.627Z,30.22
2022-08-04T18:19:15.424Z,30.51
2022-08-04T18:21:46.990Z,31.39
2022-08-04T18:24:35.950Z,31.56
2022-08-04T18:27:23.316Z,31.42
2022-08-04T18:30:38.533Z,31.44
2022-08-04T18:32:51.266Z,32.31
2022-08-04T18:35:24.833Z,32.81
2022-08-04T18:38:22.676Z,33.08
2022-08-04T18:40:53.480Z,33.52
2022-08-04T18:43:28.748Z,33.34
2022-08-04T18:46:00.633Z,33.67
2022-08-04T18:48:36.043Z,33.89
2022-08-04T18:51:22.695Z,34.10
2022-08-04T18:53:57.966Z,34.44
2022-08-04T18:56:31.689Z,34.72
2022-08-04T18:59:05.141Z,35.09
2022-08-04T19:02:12.757Z,35.95
2022-08-04T19:04:33.887Z,36.56
2022-08-04T19:07:23.434Z,36.11
2022-08-04T19:09:57.349Z,37.10
2022-08-04T19:12:27.302Z,36.91
2022-08-04T19:14:58.077Z,38.88
2022-08-04T19:17:53.674Z,39.07
2022-08-04T19:20:23.321Z,37.69
2022-08-04T19:24:10.895Z,36.73
2022-08-04T19:25:59.018Z,36.14
2022-08-04T19:28:28.026Z,36.88
2022-08-04T19:30:57.884Z,37.76
2022-08-04T19:33:25.297Z,37.53
2022-08-04T19:35:52.821Z,38.46
2022-08-04T19:38:19.485Z,38.15
2022-08-04T19:40:52.661Z,38.39
2022-08-04T19:43:19.712Z,37.90
2022-08-04T19:45:46.890Z,38.51
2022-08-04T19:48:18.952Z,38.20
2022-08-04T19:50:47.015Z,39.35
2022-08-04T19:53:19.394Z,38.34
2022-08-04T19:55:49.456Z,37.34
2022-08-04T19:58:16.270Z,38.30
2022-08-04T20:00:44.691Z,38.52
2022-08-04T20:03:20.396Z,38.55
2022-08-04T20:05:53.219Z,37.91
2022-08-04T20:08:28.664Z,38.13
2022-08-04T20:10:55.993Z,38.37
2022-08-04T20:13:25.479Z,38.81
2022-08-04T20:15:58.433Z,39.08
2022-08-04T20:18:35.777Z,39.47
2022-08-04T20:21:19.692Z,39.70
2022-08-04T20:23:52.549Z,40.75
2022-08-04T20:26:20.161Z,41.34
2022-08-04T20:28:51.873Z,41.21
2022-08-04T20:31:19.545Z,41.66
2022-08-04T20:33:49.349Z,40.46
2022-08-04T20:36:20.975Z,41.14
2022-08-04T20:38:51.998Z,41.13
2022-08-04T20:41:20.709Z,41.71
2022-08-04T20:43:49.645Z,41.63
2022-08-04T20:46:18.667Z,41.90
2022-08-04T20:48:55.466Z,41.82
2022-08-04T20:51:25.915Z,42.11
2022-08-04T20:53:59.317Z,42.63
2022-08-04T20:56:30.681Z,42.96
2022-08-04T20:58:59.143Z,42.91
2022-08-04T21:01:29.671Z,43.28
2022-08-04T21:03:59.822Z,42.64
2022-08-04T21:06:27.852Z,43.17
2022-08-04T21:08:56.715Z,42.71
2022-08-04T21:11:24.328Z,43.09
2022-08-04T21:13:59.924Z,43.00
2022-08-04T21:16:55.862Z,43.52
2022-08-04T21:19:13.900Z,43.47
2022-08-04T21:21:42.375Z,43.67
2022-08-04T21:24:09.942Z,42.91
2022-08-04T21:26:40.275Z,43.09
2022-08-04T21:29:10.351Z,44.01
2022-08-04T21:31:36.977Z,43.86
2022-08-04T21:34:39.289Z,43.93
2022-08-04T21:37:04.553Z,43.04
2022-08-04T21:39:32.624Z,43.86
2022-08-04T21:42:38.026Z,42.34
2022-08-04T21:44:46.091Z,43.12
2022-08-04T21:47:23.201Z,42.67
2022-08-04T21:49:59.346Z,42.91
2022-08-04T21:52:29.188Z,42.24
2022-08-04T21:54:55.801Z,41.88
2022-08-04T21:57:25.183Z,42.28
2022-08-04T21:59:52.601Z,42.28
2022-08-04T22:02:19.614Z,42.69
2022-08-04T22:04:46.539Z,42.01
2022-08-04T22:07:16.387Z,42.96
2022-08-04T22:10:02.516Z,42.71
2022-08-04T22:12:30.687Z,42.50
2022-08-04T22:15:00.623Z,42.94
2022-08-04T22:17:35.124Z,42.81
2022-08-04T22:20:03.956Z,41.86
2022-08-04T22:22:34.152Z,42.58
2022-08-04T22:25:12.378Z,42.60
2022-08-04T22:27:40.020Z,42.78
2022-08-04T22:30:17.477Z,43.03
2022-08-04T22:32:48.305Z,42.44
2022-08-04T22:35:35.907Z,42.34
2022-08-04T22:38:20.599Z,42.73
2022-08-04T22:41:13.997Z,42.31
2022-08-04T22:43:41.666Z,42.47
2022-08-04T22:46:12.987Z,42.31
2022-08-04T22:48:43.278Z,42.40
2022-08-04T22:51:10.509Z,42.90
2022-08-04T22:53:39.838Z,42.85
2022-08-04T22:56:10.468Z,42.58
2022-08-04T22:58:45.376Z,43.49
2022-08-04T23:01:14.952Z,43.40
2022-08-04T23:03:50.925Z,42.59
2022-08-04T23:06:24.649Z,43.13
2022-08-04T23:08:52.413Z,43.21
2022-08-04T23:11:19.192Z,44.16
2022-08-04T23:13:46.140Z,44.16
2022-08-04T23:16:15.625Z,44.08
2022-08-04T23:18:45.347Z,44.15
2022-08-04T23:21:15.071Z,43.93
2022-08-04T23:23:45.178Z,44.71
2022-08-04T23:26:15.700Z,43.56
2022-08-04T23:28:43.217Z,45.35
2022-08-04T23:31:10.154Z,45.86
2022-08-04T23:33:49.368Z,45.60
2022-08-04T23:36:29.351Z,45.28
2022-08-04T23:39:04.199Z,46.70
2022-08-04T23:41:54.790Z,46.56
2022-08-04T23:44:25.248Z,44.36
2022-08-04T23:47:03.564Z,47.13
2022-08-04T23:49:44.288Z,46.03
2022-08-04T23:52:28.222Z,46.17
2022-08-04T23:55:00.113Z,46.79
2022-08-04T23:57:31.041Z,47.01
